Time;durP1;ratioP1;P1;durP2;ratioP2;P2;SDS_P1;SDS_P2;PMS_P1;PMS_P2;Temp;Humidity;BMP_temperature;BMP_pressure;BME280_temperature;BME280_humidity;BME280_pressure;Samples;Min_cycle;Max_cycle;Signal;HPM_P1;HPM_P2
2023/05/30 00:00:29;;;;;;;5.13;2.90;;;10.00;99.90;;;;;;5012830;28;20946;-52
2023/05/30 00:02:56;;;;;;;5.63;3.30;;;10.00;99.90;;;;;;5011976;28;20496;-51
2023/05/30 00:05:24;;;;;;;5.13;2.60;;;9.90;99.90;;;;;;5013232;28;20898;-52
2023/05/30 00:07:51;;;;;;;8.13;3.10;;;9.80;99.90;;;;;;5022890;28;20486;-52
2023/05/30 00:10:18;;;;;;;5.90;3.10;;;9.90;99.90;;;;;;5012235;28;20585;-52
2023/05/30 00:12:46;;;;;;;5.40;3.10;;;9.90;99.90;;;;;;5007524;28;20471;-52
2023/05/30 00:15:16;;;;;;;7.40;3.03;;;9.80;99.90;;;;;;5010598;28;21021;-52
2023/05/30 00:17:43;;;;;;;5.13;2.63;;;9.70;99.90;;;;;;5014078;28;20484;-53
2023/05/30 00:20:10;;;;;;;5.87;2.80;;;9.70;99.90;;;;;;5011242;28;20456;-51
2023/05/30 00:22:40;;;;;;;4.40;2.80;;;9.70;99.90;;;;;;5010434;28;20954;-51
2023/05/30 00:25:09;;;;;;;6.33;3.23;;;9.70;99.90;;;;;;5005732;28;20943;-52
2023/05/30 00:27:36;;;;;;;4.57;2.73;;;9.60;99.90;;;;;;5014226;28;20479;-52
2023/05/30 00:30:03;;;;;;;4.10;2.43;;;9.60;99.90;;;;;;5008333;28;20895;-51
2023/05/30 00:32:29;;;;;;;9.33;3.33;;;9.40;99.90;;;;;;5009457;28;20468;-52
2023/05/30 00:34:56;;;;;;;4.27;3.00;;;9.30;99.90;;;;;;5010277;28;21955;-52
2023/05/30 00:37:23;;;;;;;5.37;3.10;;;9.20;99.90;;;;;;5009840;28;20480;-52
2023/05/30 00:39:50;;;;;;;12.57;3.30;;;9.30;99.90;;;;;;5010055;28;20518;-52
2023/05/30 00:42:17;;;;;;;5.43;2.60;;;9.10;99.90;;;;;;5010324;28;20460;-53
2023/05/30 00:44:45;;;;;;;4.53;2.70;;;9.20;84.90;;;;;;5010780;28;20470;-52
2023/05/30 00:47:12;;;;;;;6.03;3.30;;;9.10;84.20;;;;;;5013426;28;20563;-54
2023/05/30 00:49:39;;;;;;;6.47;3.30;;;9.00;82.70;;;;;;5011541;28;20564;-52
2023/05/30 00:52:08;;;;;;;10.90;2.57;;;8.80;71.40;;;;;;5011783;28;20460;-52
2023/05/30 00:54:34;;;;;;;7.50;3.00;;;8.70;73.60;;;;;;5008948;28;20468;-52
2023/05/30 00:57:03;;;;;;;4.27;2.80;;;8.90;48.50;;;;;;5007154;28;20549;-52
2023/05/30 00:59:30;;;;;;;7.00;2.87;;;8.90;58.60;;;;;;5000032;28;20471;-52
2023/05/30 01:01:57;;;;;;;6.07;3.10;;;8.80;52.80;;;;;;5005574;28;20551;-52
2023/05/30 01:04:24;;;;;;;3.57;2.57;;;8.80;43.80;;;;;;5008297;28;20520;-52
2023/05/30 01:06:51;;;;;;;4.97;3.33;;;8.80;47.90;;;;;;5006786;28;20491;-51
2023/05/30 01:09:18;;;;;;;6.50;3.50;;;8.90;45.40;;;;;;5010665;28;21017;-51
2023/05/30 01:11:56;;;;;;;4.90;2.90;;;8.80;34.50;;;;;;5009647;28;20477;-51
2023/05/30 01:14:32;;;;;;;6.57;2.90;;;8.60;39.20;;;;;;5011856;28;20517;-52
2023/05/30 01:17:02;;;;;;;8.40;3.17;;;8.70;30.00;;;;;;5013643;28;20533;-52
2023/05/30 01:19:47;;;;;;;7.40;3.20;;;8.60;38.50;;;;;;5010573;28;20463;-51
2023/05/30 01:22:23;;;;;;;7.03;3.03;;;8.60;37.50;;;;;;5008706;28;20613;-51
2023/05/30 01:25:01;;;;;;;7.87;3.20;;;8.50;32.50;;;;;;5012807;28;20465;-53
2023/05/30 01:27:40;;;;;;;5.87;3.13;;;8.50;35.90;;;;;;5006955;28;20487;-50
2023/05/30 01:30:10;;;;;;;6.63;3.43;;;8.40;34.60;;;;;;5008684;28;20498;-52
2023/05/30 01:32:38;;;;;;;5.77;3.20;;;8.40;29.70;;;;;;5011289;28;20525;-50
2023/05/30 01:35:05;;;;;;;12.63;3.60;;;8.50;94.50;;;;;;5002528;28;20467;-51
2023/05/30 01:37:31;;;;;;;7.73;3.00;;;8.30;30.00;;;;;;5010686;28;20490;-53
2023/05/30 01:39:58;;;;;;;5.77;2.87;;;8.30;25.40;;;;;;5005567;28;20455;-51
2023/05/30 01:42:28;;;;;;;5.63;3.23;;;8.10;99.90;;;;;;5008376;28;20978;-51
2023/05/30 01:45:02;;;;;;;6.30;3.27;;;8.10;99.90;;;;;;5010258;28;20507;-51
2023/05/30 01:47:41;;;;;;;9.90;3.20;;;8.10;99.90;;;;;;5009872;28;20480;-52
2023/05/30 01:50:15;;;;;;;6.40;3.50;;;7.90;99.90;;;;;;4998665;28;20511;-50
2023/05/30 01:52:44;;;;;;;6.87;3.10;;;8.00;99.90;;;;;;5011713;28;20463;-52
2023/05/30 01:55:13;;;;;;;5.60;3.40;;;8.00;99.90;;;;;;5006134;28;20471;-52
2023/05/30 01:57:45;;;;;;;4.87;2.97;;;8.10;99.90;;;;;;5011464;28;20540;-51
2023/05/30 02:00:14;;;;;;;6.47;3.10;;;8.00;99.90;;;;;;5017180;28;20954;-52
2023/05/30 02:02:43;;;;;;;12.90;2.90;;;7.90;99.90;;;;;;5016607;28;20468;-51
2023/05/30 02:05:10;;;;;;;5.13;2.40;;;7.90;99.90;;;;;;5015779;28;20464;-51
2023/05/30 02:07:36;;;;;;;6.10;3.57;;;7.80;99.90;;;;;;5011135;28;21510;-51
2023/05/30 02:10:03;;;;;;;8.23;3.33;;;7.80;99.90;;;;;;5012513;28;20492;-52
2023/05/30 02:12:30;;;;;;;5.67;3.10;;;7.80;99.90;;;;;;5013743;28;20460;-52
2023/05/30 02:14:57;;;;;;;6.37;3.10;;;7.70;99.90;;;;;;5013920;28;20456;-51
2023/05/30 02:17:25;;;;;;;9.67;3.67;;;7.70;99.90;;;;;;5014620;28;20476;-52
2023/05/30 02:19:53;;;;;;;4.17;3.13;;;7.60;99.90;;;;;;5012902;28;20447;-52
2023/05/30 02:22:20;;;;;;;4.40;3.37;;;7.70;99.90;;;;;;5011539;28;20506;-52
2023/05/30 02:24:47;;;;;;;9.10;3.93;;;7.80;99.90;;;;;;5012221;28;20471;-51
2023/05/30 02:27:13;;;;;;;7.87;3.23;;;7.60;99.90;;;;;;5015023;28;20486;-52
2023/05/30 02:29:40;;;;;;;7.80;3.00;;;7.50;99.90;;;;;;5010656;28;20484;-52
2023/05/30 02:32:08;;;;;;;6.00;2.90;;;7.40;99.90;;;;;;5012705;28;21207;-52
2023/05/30 02:34:35;;;;;;;5.20;3.53;;;7.40;99.90;;;;;;5014053;28;20499;-51
2023/05/30 02:37:03;;;;;;;5.07;3.00;;;7.30;99.90;;;;;;5017024;28;20899;-52
2023/05/30 02:39:29;;;;;;;5.97;2.97;;;7.30;99.90;;;;;;5015790;28;20463;-53
2023/05/30 02:41:57;;;;;;;4.53;3.03;;;7.40;99.90;;;;;;5015753;28;20914;-52
2023/05/30 02:44:24;;;;;;;5.53;2.93;;;7.30;99.90;;;;;;5010852;28;20468;-52
2023/05/30 02:46:50;;;;;;;10.70;3.80;;;7.40;99.90;;;;;;5016163;28;20479;-52
2023/05/30 02:49:18;;;;;;;5.40;2.90;;;7.30;99.90;;;;;;5016188;28;20999;-50
2023/05/30 02:51:45;;;;;;;5.80;3.70;;;7.20;99.90;;;;;;5018630;28;20460;-52
2023/05/30 02:54:13;;;;;;;13.63;3.03;;;7.10;99.90;;;;;;5013302;28;20460;-52
2023/05/30 02:56:40;;;;;;;5.07;3.20;;;7.10;99.90;;;;;;5014272;28;20839;-51
2023/05/30 02:59:06;;;;;;;6.63;2.73;;;7.10;99.90;;;;;;5014764;28;20443;-53
2023/05/30 03:01:33;;;;;;;5.90;2.97;;;7.00;99.90;;;;;;5014663;28;20440;-52
2023/05/30 03:04:00;;;;;;;5.43;3.10;;;7.10;99.90;;;;;;5011783;28;20518;-51
2023/05/30 03:06:27;;;;;;;10.70;3.10;;;7.00;99.90;;;;;;5013708;28;20993;-51
2023/05/30 03:08:58;;;;;;;6.07;3.30;;;7.00;99.90;;;;;;5013639;28;20454;-53
2023/05/30 03:11:26;;;;;;;7.10;3.20;;;7.10;99.90;;;;;;5013431;28;20491;-52
2023/05/30 03:13:52;;;;;;;9.30;3.30;;;7.00;99.90;;;;;;5015647;28;20463;-52
2023/05/30 03:16:20;;;;;;;6.83;3.60;;;7.10;99.90;;;;;;5013714;28;20594;-52
2023/05/30 03:18:49;;;;;;;6.50;3.47;;;7.10;99.90;;;;;;5012358;28;20514;-51
2023/05/30 03:21:16;;;;;;;5.83;3.23;;;7.20;99.90;;;;;;5011837;28;20464;-50
2023/05/30 03:23:42;;;;;;;14.97;3.40;;;7.10;99.90;;;;;;5014118;28;20532;-52
2023/05/30 03:26:09;;;;;;;5.90;3.27;;;7.20;99.90;;;;;;5011186;28;20492;-51
2023/05/30 03:28:37;;;;;;;3.30;3.00;;;7.20;99.90;;;;;;5009768;28;20467;-51
2023/05/30 03:31:04;;;;;;;4.07;3.50;;;7.10;99.90;;;;;;5011848;28;20487;-51
2023/05/30 03:33:30;;;;;;;4.30;3.40;;;7.00;99.90;;;;;;5010903;28;20468;-52
2023/05/30 03:35:57;;;;;;;3.90;3.03;;;7.00;99.90;;;;;;5011257;28;20476;-52
2023/05/30 03:38:23;;;;;;;9.50;3.20;;;7.20;99.90;;;;;;5010876;28;20950;-52
2023/05/30 03:40:50;;;;;;;5.90;3.03;;;7.20;99.90;;;;;;5011679;28;20456;-52
2023/05/30 03:43:17;;;;;;;5.07;3.33;;;7.20;99.90;;;;;;5010931;28;20882;-51
2023/05/30 03:45:45;;;;;;;6.80;3.77;;;7.20;99.90;;;;;;5008325;28;20510;-51
2023/05/30 03:48:11;;;;;;;5.17;2.90;;;7.20;99.90;;;;;;5008591;28;20506;-52
2023/05/30 03:50:38;;;;;;;7.60;3.70;;;7.20;99.90;;;;;;5013580;28;21032;-51
2023/05/30 03:53:05;;;;;;;4.37;3.37;;;7.20;99.90;;;;;;5012341;28;20523;-51
2023/05/30 03:55:31;;;;;;;5.97;3.10;;;7.30;99.90;;;;;;5013332;28;20464;-51
2023/05/30 03:57:58;;;;;;;3.40;3.10;;;7.30;99.90;;;;;;5010185;28;20507;-52
2023/05/30 04:00:25;;;;;;;7.90;3.00;;;7.40;99.90;;;;;;5014165;28;20494;-53
2023/05/30 04:02:53;;;;;;;9.33;3.60;;;7.50;99.90;;;;;;5010281;28;20472;-52
2023/05/30 04:05:20;;;;;;;6.97;3.47;;;7.50;99.90;;;;;;5010952;28;20460;-52
2023/05/30 04:07:48;;;;;;;4.87;3.43;;;7.60;99.90;;;;;;5013417;28;20488;-52
2023/05/30 04:10:14;;;;;;;7.67;3.67;;;7.70;99.90;;;;;;5007898;28;21063;-52
2023/05/30 04:12:41;;;;;;;7.47;3.67;;;7.80;99.90;;;;;;5012720;28;20467;-51
2023/05/30 04:15:08;;;;;;;6.80;3.37;;;7.90;99.90;;;;;;5014160;28;20464;-52
2023/05/30 04:17:35;;;;;;;10.77;3.83;;;8.00;99.90;;;;;;5004058;28;20515;-51
2023/05/30 04:20:04;;;;;;;10.13;3.67;;;8.10;99.90;;;;;;5010774;28;20498;-50
2023/05/30 04:22:32;;;;;;;10.13;3.70;;;8.20;99.90;;;;;;5011643;28;21205;-53
2023/05/30 04:24:59;;;;;;;7.13;4.00;;;8.30;99.90;;;;;;5010861;28;20467;-51
2023/05/30 04:27:26;;;;;;;5.50;3.40;;;8.40;99.90;;;;;;5010808;28;20488;-53
2023/05/30 04:29:53;;;;;;;13.90;3.63;;;8.50;99.90;;;;;;5012644;28;20456;-52
2023/05/30 04:32:20;;;;;;;4.03;3.20;;;8.60;99.90;;;;;;5010536;28;20460;-51
2023/05/30 04:34:47;;;;;;;9.53;3.67;;;8.70;99.90;;;;;;5010512;28;20460;-51
2023/05/30 04:37:17;;;;;;;7.90;3.57;;;8.80;99.90;;;;;;5008153;28;20542;-53
2023/05/30 04:39:44;;;;;;;7.40;3.80;;;9.00;99.90;;;;;;5009693;28;20972;-52
2023/05/30 04:42:12;;;;;;;8.20;3.67;;;9.00;99.90;;;;;;5005959;28;20484;-53
2023/05/30 04:44:39;;;;;;;15.70;3.47;;;9.20;99.90;;;;;;5005332;28;20578;-53
2023/05/30 04:47:07;;;;;;;12.47;3.33;;;9.30;99.90;;;;;;5005669;28;20484;-53
2023/05/30 04:49:34;;;;;;;8.03;3.20;;;9.50;99.90;;;;;;5014417;28;20553;-52
2023/05/30 04:52:03;;;;;;;7.20;3.10;;;9.60;99.90;;;;;;5007178;28;20546;-51
2023/05/30 04:54:31;;;;;;;22.47;3.90;;;9.70;99.90;;;;;;5009517;28;20914;-53
2023/05/30 04:56:58;;;;;;;8.70;3.50;;;9.90;99.90;;;;;;5009221;28;20520;-52
2023/05/30 04:59:24;;;;;;;8.23;2.60;;;10.00;99.90;;;;;;5021000;23;21008;-50
2023/05/30 05:01:52;;;;;;;10.03;3.83;;;10.10;99.90;;;;;;5004247;28;20468;-50
2023/05/30 05:04:18;;;;;;;11.27;4.00;;;10.10;91.20;;;;;;5007912;28;20452;-50
2023/05/30 05:06:45;;;;;;;8.63;4.07;;;10.20;80.80;;;;;;5004769;28;20515;-51
2023/05/30 05:09:13;;;;;;;9.37;3.90;;;10.30;21.40;;;;;;5011177;28;20563;-51
2023/05/30 05:11:41;;;;;;;11.43;4.20;;;10.40;25.00;;;;;;5006172;28;20864;-51
2023/05/30 05:14:07;;;;;;;8.33;3.70;;;10.50;24.80;;;;;;5002095;28;20514;-51
2023/05/30 05:16:34;;;;;;;15.03;3.70;;;10.60;26.80;;;;;;5015142;28;20809;-51
2023/05/30 05:19:00;;;;;;;16.53;3.57;;;10.60;27.80;;;;;;5015138;28;20479;-50
2023/05/30 05:21:27;;;;;;;16.10;4.20;;;10.70;22.60;;;;;;5005854;28;20467;-50
2023/05/30 05:23:53;;;;;;;9.40;3.70;;;10.70;26.00;;;;;;5003735;28;20491;-50
2023/05/30 05:26:20;;;;;;;9.03;3.50;;;10.90;28.10;;;;;;5006186;28;20505;-50
2023/05/30 05:28:48;;;;;;;13.20;3.60;;;10.90;32.30;;;;;;5005704;28;20483;-49
2023/05/30 05:31:14;;;;;;;7.10;3.63;;;11.00;32.30;;;;;;4999445;28;20884;-51
2023/05/30 05:33:42;;;;;;;13.20;3.20;;;11.10;29.60;;;;;;5007102;28;20518;-50
2023/05/30 05:36:08;;;;;;;13.93;3.87;;;11.20;29.80;;;;;;5010900;28;20476;-51
2023/05/30 05:38:35;;;;;;;13.97;3.07;;;11.20;31.00;;;;;;5005736;28;20854;-50
2023/05/30 05:41:02;;;;;;;22.30;3.83;;;11.40;32.10;;;;;;5001741;28;20459;-50
2023/05/30 05:43:28;;;;;;;7.87;3.30;;;11.40;30.30;;;;;;5007034;28;20475;-51
2023/05/30 05:45:56;;;;;;;7.77;3.20;;;11.50;32.50;;;;;;4999962;28;20550;-51
2023/05/30 05:48:23;;;;;;;10.10;3.43;;;11.60;38.50;;;;;;5003760;28;20480;-51
2023/05/30 05:50:50;;;;;;;7.67;3.10;;;11.70;34.90;;;;;;4999289;28;20578;-51
2023/05/30 05:53:16;;;;;;;7.00;2.80;;;11.80;36.50;;;;;;5006149;28;20471;-50
2023/05/30 05:55:44;;;;;;;10.43;2.90;;;11.90;42.30;;;;;;5006447;28;20464;-50
2023/05/30 05:58:11;;;;;;;10.10;2.40;;;12.00;57.00;;;;;;5007935;28;20856;-51
2023/05/30 06:00:37;;;;;;;8.70;2.90;;;12.10;54.30;;;;;;5008064;28;20495;-50
2023/05/30 06:03:05;;;;;;;4.37;2.50;;;12.20;56.60;;;;;;5007691;28;20958;-51
2023/05/30 06:05:32;;;;;;;6.60;2.80;;;12.20;62.50;;;;;;5005340;28;20526;-50
2023/05/30 06:07:59;;;;;;;12.70;3.20;;;12.30;63.70;;;;;;5007285;28;21013;-50
2023/05/30 06:10:27;;;;;;;6.20;2.97;;;12.50;68.70;;;;;;5009944;28;20467;-50
2023/05/30 06:12:54;;;;;;;8.43;2.67;;;12.60;75.60;;;;;;5010080;28;20489;-51
2023/05/30 06:15:20;;;;;;;12.40;3.63;;;12.60;79.80;;;;;;5010949;28;20464;-50
2023/05/30 06:17:47;;;;;;;12.93;2.30;;;12.70;99.90;;;;;;5007374;28;20919;-50
2023/05/30 06:20:15;;;;;;;5.37;2.83;;;12.80;99.90;;;;;;5001566;28;20493;-50
2023/05/30 06:22:42;;;;;;;6.83;2.63;;;12.80;99.90;;;;;;5002705;28;20464;-51
2023/05/30 06:25:09;;;;;;;14.97;3.03;;;12.90;99.90;;;;;;5002379;28;20955;-51
2023/05/30 06:27:36;;;;;;;7.87;2.30;;;13.10;99.90;;;;;;5003521;28;20460;-50
2023/05/30 06:30:03;;;;;;;6.33;2.67;;;13.10;99.90;;;;;;5005712;28;20503;-50
2023/05/30 06:32:29;;;;;;;9.47;3.40;;;13.20;99.90;;;;;;5001727;28;20499;-50
2023/05/30 06:34:56;;;;;;;9.10;2.37;;;13.30;99.90;;;;;;5010766;28;20463;-50
2023/05/30 06:37:24;;;;;;;5.70;2.10;;;13.40;99.90;;;;;;4997715;28;21065;-51
2023/05/30 06:39:50;;;;;;;9.03;2.63;;;13.50;99.90;;;;;;5004267;28;20538;-51
2023/05/30 06:42:17;;;;;;;7.17;2.80;;;13.60;99.90;;;;;;5006725;28;20953;-51
2023/05/30 06:44:44;;;;;;;5.77;3.27;;;13.70;22.90;;;;;;5005357;28;20471;-51
2023/05/30 06:47:10;;;;;;;6.93;2.70;;;13.80;96.30;;;;;;5008740;28;20460;-51
2023/05/30 06:49:37;;;;;;;7.40;2.50;;;13.90;32.70;;;;;;5005679;28;20489;-50
2023/05/30 06:52:04;;;;;;;6.47;2.10;;;14.00;34.00;;;;;;5009337;28;20479;-49
2023/05/30 06:54:33;;;;;;;6.40;2.60;;;14.10;68.50;;;;;;5008755;28;20463;-50
2023/05/30 06:57:02;;;;;;;8.20;2.07;;;14.20;62.80;;;;;;5009469;28;20468;-50
2023/05/30 06:59:29;;;;;;;6.60;3.17;;;14.30;81.80;;;;;;5013574;28;20996;-51
2023/05/30 07:01:56;;;;;;;4.93;2.20;;;14.40;89.80;;;;;;5010620;28;20885;-50
2023/05/30 07:04:23;;;;;;;3.47;1.90;;;14.50;99.90;;;;;;5013022;28;20491;-50
2023/05/30 07:06:50;;;;;;;7.97;3.00;;;14.50;99.90;;;;;;5009095;28;20507;-51
2023/05/30 07:09:16;;;;;;;4.97;2.50;;;14.70;99.90;;;;;;5013366;28;20525;-51
2023/05/30 07:11:44;;;;;;;7.90;2.20;;;14.80;99.90;;;;;;5008377;28;20488;-50
2023/05/30 07:14:12;;;;;;;8.10;2.70;;;14.90;99.90;;;;;;5004201;28;20461;-50
2023/05/30 07:16:38;;;;;;;4.70;2.20;;;15.10;99.90;;;;;;5007155;28;20467;-50
2023/05/30 07:19:06;;;;;;;5.77;2.40;;;15.10;99.90;;;;;;5009014;28;20479;-49
2023/05/30 07:21:33;;;;;;;5.07;2.83;;;15.10;99.90;;;;;;5010853;28;20511;-49
2023/05/30 07:24:00;;;;;;;5.03;2.40;;;15.40;99.90;;;;;;5009304;28;20936;-49
2023/05/30 07:26:26;;;;;;;7.47;2.40;;;15.40;99.90;;;;;;5011036;28;20466;-50
2023/05/30 07:28:54;;;;;;;4.07;2.33;;;15.60;99.90;;;;;;5009954;28;20502;-52
2023/05/30 07:31:21;;;;;;;8.00;2.80;;;15.60;99.90;;;;;;5007778;28;20990;-48
2023/05/30 07:33:47;;;;;;;8.97;2.47;;;15.70;99.90;;;;;;5012872;28;20468;-50
2023/05/30 07:36:14;;;;;;;16.33;2.63;;;15.80;99.90;;;;;;5010724;28;21244;-49
2023/05/30 07:38:41;;;;;;;7.00;2.63;;;15.90;99.90;;;;;;5010359;28;20538;-50
2023/05/30 07:41:08;;;;;;;7.67;2.40;;;16.00;99.90;;;;;;5011179;28;20487;-51
2023/05/30 07:43:34;;;;;;;12.03;2.83;;;16.20;99.90;;;;;;5007106;28;20889;-51
2023/05/30 07:46:02;;;;;;;9.40;2.50;;;16.20;99.90;;;;;;5007651;28;20464;-50
2023/05/30 07:48:29;;;;;;;6.50;2.47;;;16.20;99.90;;;;;;5011479;28;21024;-51
2023/05/30 07:50:55;;;;;;;11.23;3.20;;;16.40;99.90;;;;;;5012765;28;20468;-51
2023/05/30 07:53:22;;;;;;;10.80;3.93;;;16.40;99.90;;;;;;5011436;28;20460;-50
2023/05/30 07:55:49;;;;;;;3.97;2.43;;;16.40;99.90;;;;;;5008889;28;20514;-51
2023/05/30 07:58:15;;;;;;;6.13;2.37;;;16.50;99.90;;;;;;5009241;28;20495;-50
2023/05/30 08:00:42;;;;;;;9.93;2.30;;;16.50;99.90;;;;;;5010168;28;20467;-50
2023/05/30 08:03:10;;;;;;;9.07;3.33;;;16.50;99.90;;;;;;5011906;28;20440;-50
2023/05/30 08:05:36;;;;;;;4.37;2.00;;;16.50;99.90;;;;;;5004559;28;20554;-50
2023/05/30 08:08:06;;;;;;;6.13;2.50;;;16.70;99.90;;;;;;5010622;28;20483;-51
2023/05/30 08:10:32;;;;;;;5.90;2.70;;;16.80;99.90;;;;;;5008119;28;20463;-50
2023/05/30 08:12:59;;;;;;;7.93;2.40;;;17.00;99.90;;;;;;5005196;28;20476;-51
2023/05/30 08:15:27;;;;;;;12.73;3.37;;;17.10;99.90;;;;;;5010442;28;20471;-51
2023/05/30 08:17:56;;;;;;;6.30;2.70;;;17.20;99.90;;;;;;5010931;28;21159;-51
2023/05/30 08:20:24;;;;;;;6.83;3.03;;;17.30;99.90;;;;;;5009063;28;20972;-50
2023/05/30 08:22:51;;;;;;;6.07;2.80;;;17.40;99.90;;;;;;5005781;28;20502;-51
2023/05/30 08:25:21;;;;;;;11.73;3.80;;;17.50;99.90;;;;;;5008263;28;20721;-50
2023/05/30 08:27:49;;;;;;;5.77;2.73;;;17.40;99.90;;;;;;5011336;28;20483;-54
2023/05/30 08:30:16;;;;;;;16.57;3.20;;;17.50;99.90;;;;;;5011817;28;20460;-51
2023/05/30 08:32:42;;;;;;;6.23;2.70;;;17.70;99.90;;;;;;5022695;28;20480;-51
2023/05/30 08:35:09;;;;;;;9.47;2.73;;;17.80;99.90;;;;;;5021695;28;20448;-51
2023/05/30 08:37:37;;;;;;;8.70;2.87;;;17.90;99.90;;;;;;5020650;28;20452;-50
2023/05/30 08:40:04;;;;;;;11.37;3.00;;;17.90;99.90;;;;;;5010550;28;20960;-51
2023/05/30 08:42:31;;;;;;;7.60;2.97;;;17.80;99.90;;;;;;5015040;28;20444;-52
2023/05/30 08:44:58;;;;;;;12.50;3.00;;;17.90;99.90;;;;;;5007181;28;20468;-50
2023/05/30 08:47:25;;;;;;;9.20;3.50;;;17.90;99.90;;;;;;5003945;28;20527;-50
2023/05/30 08:49:53;;;;;;;10.27;2.57;;;18.00;99.90;;;;;;5008831;28;20521;-51
2023/05/30 08:52:20;;;;;;;11.63;2.83;;;18.20;99.90;;;;;;5009896;28;20486;-51
2023/05/30 08:54:58;;;;;;;12.33;2.73;;;18.20;99.90;;;;;;5006750;28;20469;-51
2023/05/30 08:57:32;;;;;;;16.17;3.20;;;18.30;99.90;;;;;;5010849;28;20554;-50
2023/05/30 09:00:02;;;;;;;4.87;2.50;;;18.40;99.90;;;;;;5007659;28;20459;-51
2023/05/30 09:02:29;;;;;;;7.40;3.17;;;18.50;99.90;;;;;;5012084;28;20571;-51
2023/05/30 09:04:59;;;;;;;12.43;2.80;;;18.70;99.90;;;;;;5003837;28;21104;-50
2023/05/30 09:07:28;;;;;;;9.80;3.37;;;18.60;99.90;;;;;;5010555;28;20467;-51
2023/05/30 09:09:56;;;;;;;10.17;2.50;;;19.00;99.90;;;;;;5004273;28;20460;-51
2023/05/30 09:12:25;;;;;;;8.30;3.30;;;18.90;99.90;;;;;;5007795;28;20511;-51
2023/05/30 09:14:52;;;;;;;5.87;2.80;;;18.90;99.90;;;;;;5011412;28;20450;-51
2023/05/30 09:17:18;;;;;;;9.23;2.83;;;19.20;99.90;;;;;;5011066;28;20459;-51
2023/05/30 09:19:46;;;;;;;6.33;2.50;;;19.30;99.90;;;;;;5011739;28;20999;-50
2023/05/30 09:22:13;;;;;;;8.60;2.67;;;19.40;99.90;;;;;;5001946;28;20864;-50
2023/05/30 09:24:59;;;;;;;6.10;2.40;;;19.30;99.90;;;;;;5003370;28;20908;-51
2023/05/30 09:27:27;;;;;;;12.73;3.30;;;19.40;99.90;;;;;;5009044;28;20544;-51
2023/05/30 09:29:54;;;;;;;5.00;2.40;;;19.20;99.90;;;;;;5010265;28;20468;-50
2023/05/30 09:32:26;;;;;;;10.57;2.73;;;19.50;99.90;;;;;;5011188;28;20997;-51
2023/05/30 09:34:55;;;;;;;7.67;3.40;;;19.60;99.90;;;;;;5007637;28;20497;-51
2023/05/30 09:37:22;;;;;;;12.67;3.53;;;19.80;99.90;;;;;;5009692;28;20460;-51
2023/05/30 09:42:43;;;;;;;5.60;2.27;;;19.90;99.90;;;;;;5099995;28;20887;-50
2023/05/30 09:45:12;;;;;;;8.77;2.73;;;19.80;99.90;;;;;;5087173;28;20502;-51
2023/05/30 09:47:44;;;;;;;8.60;2.70;;;19.80;99.90;;;;;;5083089;28;20525;-51
2023/05/30 09:50:12;;;;;;;5.80;2.30;;;20.00;99.90;;;;;;5077838;28;20461;-51
2023/05/30 09:52:40;;;;;;;5.03;2.53;;;20.20;99.90;;;;;;5087449;28;20509;-51
2023/05/30 09:55:08;;;;;;;11.20;2.73;;;20.20;99.90;;;;;;5086889;28;20534;-51
2023/05/30 09:57:36;;;;;;;10.40;2.83;;;20.60;99.90;;;;;;5083837;28;20522;-50
2023/05/30 10:00:11;;;;;;;10.87;3.37;;;20.70;99.90;;;;;;5085203;28;20462;-50
2023/05/30 10:02:39;;;;;;;9.07;2.90;;;21.10;99.90;;;;;;5069779;28;20481;-49
2023/05/30 10:05:07;;;;;;;4.93;2.27;;;21.20;99.90;;;;;;5079043;28;20460;-50
2023/05/30 10:07:34;;;;;;;7.00;2.87;;;21.20;99.90;;;;;;5087841;28;20506;-50
2023/05/30 10:10:01;;;;;;;6.33;2.60;;;21.20;99.90;;;;;;5083303;28;20518;-50
2023/05/30 10:12:29;;;;;;;5.53;2.20;;;21.30;99.90;;;;;;5088606;28;20467;-51
2023/05/30 10:14:56;;;;;;;6.73;2.43;;;21.40;99.90;;;;;;5087629;28;20444;-51
2023/05/30 10:17:27;;;;;;;4.57;1.83;;;21.30;99.90;;;;;;5075488;28;20452;-49
2023/05/30 10:20:01;;;;;;;8.47;3.50;;;21.40;99.90;;;;;;5086187;28;20452;-50
2023/05/30 10:22:30;;;;;;;16.43;2.60;;;21.40;99.90;;;;;;5073379;28;20849;-51
2023/05/30 10:24:58;;;;;;;9.20;2.70;;;21.20;99.90;;;;;;5074587;28;20461;-50
2023/05/30 10:27:28;;;;;;;5.47;2.77;;;22.10;99.90;;;;;;5087929;28;20441;-50
2023/05/30 10:33:21;;;;;;;6.30;2.37;;;23.90;99.90;;;;;;5065763;28;20542;-50
2023/05/30 10:35:48;;;;;;;4.80;1.97;;;23.60;99.90;;;;;;5069321;28;20544;-50
2023/05/30 10:38:16;;;;;;;6.77;2.03;;;23.20;99.90;;;;;;5074441;28;21045;-50
2023/05/30 10:40:51;;;;;;;3.20;1.97;;;22.80;99.90;;;;;;5076584;28;20507;-50
2023/05/30 10:43:40;;;;;;;6.63;3.07;;;22.60;99.90;;;;;;5071209;28;20535;-49
2023/05/30 10:46:25;;;;;;;7.07;2.13;;;22.50;99.90;;;;;;5074383;28;20536;-49
2023/05/30 10:48:58;;;;;;;6.57;2.60;;;23.00;94.40;;;;;;5079838;28;20484;-49
2023/05/30 10:51:27;;;;;;;5.27;2.60;;;23.30;99.90;;;;;;5074346;28;20513;-51
2023/05/30 10:53:57;;;;;;;2.13;1.90;;;23.30;86.70;;;;;;5056203;28;20466;-50
2023/05/30 10:56:41;;;;;;;3.50;1.90;;;23.60;84.80;;;;;;5063414;28;20519;-50
2023/05/30 10:59:14;;;;;;;9.53;2.53;;;24.50;74.50;;;;;;5059666;28;20508;-51
2023/05/30 11:01:42;;;;;;;10.53;2.00;;;24.40;80.70;;;;;;5066280;28;20512;-51
2023/05/30 11:04:12;;;;;;;3.50;2.40;;;24.10;20.80;;;;;;5054844;28;20484;-51
2023/05/30 11:06:41;;;;;;;4.37;2.47;;;23.90;85.50;;;;;;5056883;28;20474;-51
2023/05/30 11:09:11;;;;;;;7.20;3.03;;;23.00;77.50;;;;;;5057729;28;20554;-51
2023/05/30 11:11:40;;;;;;;4.83;2.20;;;22.90;80.20;;;;;;5055786;28;20522;-50
2023/05/30 11:14:07;;;;;;;2.63;2.37;;;22.30;92.50;;;;;;5062324;28;20547;-50
2023/05/30 11:16:34;;;;;;;7.50;1.80;;;22.80;82.20;;;;;;5063190;28;20492;-50
2023/05/30 11:19:12;;;;;;;4.13;2.60;;;22.70;98.40;;;;;;5053682;28;20526;-50
2023/05/30 11:21:58;;;;;;;7.50;1.83;;;22.70;99.90;;;;;;5059992;28;20509;-50
2023/05/30 11:24:25;;;;;;;12.23;2.20;;;22.40;99.90;;;;;;5064878;28;21230;-50
2023/05/30 11:26:56;;;;;;;6.43;2.50;;;22.60;99.90;;;;;;5062471;28;20491;-50
2023/05/30 11:29:31;;;;;;;2.83;1.70;;;23.00;99.90;;;;;;5061984;28;20510;-50
2023/05/30 11:31:58;;;;;;;2.90;1.90;;;23.20;99.90;;;;;;5067822;28;20445;-55
2023/05/30 11:34:26;;;;;;;6.53;3.03;;;23.60;99.90;;;;;;5064396;28;20548;-56
2023/05/30 11:36:52;;;;;;;5.40;2.00;;;23.20;99.90;;;;;;5064328;28;20530;-56
2023/05/30 11:39:19;;;;;;;8.27;2.30;;;23.00;99.90;;;;;;5066867;28;20501;-56
2023/05/30 11:41:46;;;;;;;8.13;2.23;;;22.80;99.90;;;;;;5058405;28;20547;-56
2023/05/30 11:44:14;;;;;;;6.20;2.10;;;22.70;99.90;;;;;;5060846;28;20458;-52
2023/05/30 11:46:40;;;;;;;3.90;2.40;;;23.10;99.90;;;;;;5069608;28;20846;-52
2023/05/30 11:49:07;;;;;;;9.03;2.43;;;22.90;99.90;;;;;;5054604;28;20486;-52
2023/05/30 11:51:39;;;;;;;6.60;2.30;;;23.10;99.90;;;;;;5060458;28;20468;-52
2023/05/30 11:54:08;;;;;;;8.23;2.30;;;22.60;99.90;;;;;;5056129;28;20990;-52
2023/05/30 11:56:35;;;;;;;3.40;2.10;;;23.70;99.90;;;;;;5053519;28;20501;-52
2023/05/30 11:59:02;;;;;;;4.00;2.10;;;24.00;99.90;;;;;;5065636;28;20515;-52
2023/05/30 12:01:28;;;;;;;16.83;2.17;;;23.70;99.90;;;;;;5060697;28;20484;-52
2023/05/30 12:03:55;;;;;;;5.03;2.17;;;23.80;99.90;;;;;;5066743;28;20548;-52
2023/05/30 12:06:22;;;;;;;6.63;2.70;;;23.60;99.90;;;;;;5066954;28;20973;-53
2023/05/30 12:08:51;;;;;;;5.00;2.07;;;23.60;99.90;;;;;;5063374;28;20486;-51
2023/05/30 12:11:18;;;;;;;7.77;2.30;;;23.30;99.90;;;;;;5058151;28;20462;-53
2023/05/30 12:13:44;;;;;;;7.93;3.00;;;23.40;99.90;;;;;;5052861;28;20538;-52
2023/05/30 12:16:11;;;;;;;14.40;2.50;;;23.20;99.90;;;;;;5063291;28;20454;-53
2023/05/30 12:18:39;;;;;;;10.17;3.00;;;23.00;99.90;;;;;;5059521;28;20477;-52
2023/05/30 12:21:06;;;;;;;6.97;3.03;;;23.20;99.90;;;;;;5065498;28;20457;-52
2023/05/30 12:23:32;;;;;;;10.50;2.10;;;23.10;99.90;;;;;;5058425;28;20553;-51
2023/05/30 12:26:00;;;;;;;20.23;2.50;;;23.40;99.90;;;;;;5065828;28;20903;-52
2023/05/30 12:28:27;;;;;;;14.77;2.63;;;23.30;99.90;;;;;;5066897;28;20538;-52
2023/05/30 12:30:54;;;;;;;5.37;2.40;;;22.90;99.90;;;;;;5070034;28;20489;-52
2023/05/30 12:33:23;;;;;;;5.43;2.23;;;22.70;99.90;;;;;;5067323;28;20534;-53
2023/05/30 12:35:53;;;;;;;4.53;2.23;;;22.60;99.90;;;;;;5069077;28;20831;-53
2023/05/30 12:38:21;;;;;;;9.93;1.80;;;23.30;99.90;;;;;;5059530;28;20482;-53
2023/05/30 12:40:48;;;;;;;6.23;2.20;;;23.90;99.90;;;;;;5047786;23;21077;-52
2023/05/30 12:43:17;;;;;;;8.23;2.10;;;23.50;99.90;;;;;;5031224;28;20908;-52
2023/05/30 12:45:44;;;;;;;12.73;2.57;;;23.50;99.90;;;;;;5028579;28;20494;-52
2023/05/30 12:48:11;;;;;;;4.20;1.83;;;23.40;99.90;;;;;;5026898;28;20554;-51
2023/05/30 12:50:38;;;;;;;3.50;1.67;;;23.20;99.90;;;;;;5030277;28;20587;-51
2023/05/30 12:53:04;;;;;;;2.23;1.90;;;22.80;99.90;;;;;;5021992;28;20455;-50
2023/05/30 12:55:31;;;;;;;9.20;2.30;;;23.10;99.90;;;;;;5029279;28;20462;-53
2023/05/30 12:57:59;;;;;;;2.60;1.60;;;23.30;99.90;;;;;;5029622;28;20462;-51